sensor_id;sensor_type;location;lat;lon;timestamp;temperature;humidity
546;DHT22;259;53.304;9.816;2023-08-06T00:02:23;19.90;98.10
546;DHT22;259;53.304;9.816;2023-08-06T00:04:48;19.90;98.10
546;DHT22;259;53.304;9.816;2023-08-06T00:07:14;19.90;98.10
546;DHT22;259;53.304;9.816;2023-08-06T00:09:40;19.90;98.10
546;DHT22;259;53.304;9.816;2023-08-06T00:12:06;19.90;98.10
546;DHT22;259;53.304;9.816;2023-08-06T00:14:32;19.90;98.10
546;DHT22;259;53.304;9.816;2023-08-06T00:16:58;19.90;98.10
546;DHT22;259;53.304;9.816;2023-08-06T00:19:23;19.90;98.10
546;DHT22;259;53.304;9.816;2023-08-06T00:21:49;19.90;98.10
546;DHT22;259;53.304;9.816;2023-08-06T00:24:15;19.80;98.00
546;DHT22;259;53.304;9.816;2023-08-06T00:26:40;19.80;98.00
546;DHT22;259;53.304;9.816;2023-08-06T00:29:06;19.80;98.00
546;DHT22;259;53.304;9.816;2023-08-06T00:31:32;19.80;98.00
546;DHT22;259;53.304;9.816;2023-08-06T00:33:57;19.80;98.00
546;DHT22;259;53.304;9.816;2023-08-06T00:36:23;19.80;98.00
546;DHT22;259;53.304;9.816;2023-08-06T00:38:48;19.80;98.00
546;DHT22;259;53.304;9.816;2023-08-06T00:41:15;19.80;98.00
546;DHT22;259;53.304;9.816;2023-08-06T00:43:40;19.70;97.90
546;DHT22;259;53.304;9.816;2023-08-06T00:46:06;19.80;98.00
546;DHT22;259;53.304;9.816;2023-08-06T00:48:32;19.70;98.00
546;DHT22;259;53.304;9.816;2023-08-06T00:50:59;19.70;97.90
546;DHT22;259;53.304;9.816;2023-08-06T00:53:24;19.70;98.00
546;DHT22;259;53.304;9.816;2023-08-06T00:55:51;19.70;98.00
546;DHT22;259;53.304;9.816;2023-08-06T00:58:16;19.70;97.90
546;DHT22;259;53.304;9.816;2023-08-06T01:00:42;19.70;97.90
546;DHT22;259;53.304;9.816;2023-08-06T01:03:08;19.70;98.00
546;DHT22;259;53.304;9.816;2023-08-06T01:05:34;19.70;98.00
546;DHT22;259;53.304;9.816;2023-08-06T01:10:45;19.70;98.00
546;DHT22;259;53.304;9.816;2023-08-06T01:13:32;19.70;98.00
546;DHT22;259;53.304;9.816;2023-08-06T01:16:03;19.60;97.90
546;DHT22;259;53.304;9.816;2023-08-06T01:18:30;19.60;97.90
546;DHT22;259;53.304;9.816;2023-08-06T01:20:57;19.60;98.00
546;DHT22;259;53.304;9.816;2023-08-06T01:23:23;19.60;97.90
546;DHT22;259;53.304;9.816;2023-08-06T01:28:51;19.60;97.90
546;DHT22;259;53.304;9.816;2023-08-06T01:31:24;19.60;98.00
546;DHT22;259;53.304;9.816;2023-08-06T01:34:01;19.60;98.00
546;DHT22;259;53.304;9.816;2023-08-06T01:36:28;19.60;98.00
546;DHT22;259;53.304;9.816;2023-08-06T01:38:55;19.60;98.00
546;DHT22;259;53.304;9.816;2023-08-06T01:41:22;19.60;98.00
546;DHT22;259;53.304;9.816;2023-08-06T01:43:48;19.60;98.00
546;DHT22;259;53.304;9.816;2023-08-06T01:46:14;19.60;98.00
546;DHT22;259;53.304;9.816;2023-08-06T01:48:40;19.50;98.00
546;DHT22;259;53.304;9.816;2023-08-06T01:51:06;19.50;98.00
546;DHT22;259;53.304;9.816;2023-08-06T01:53:33;19.50;98.00
546;DHT22;259;53.304;9.816;2023-08-06T01:55:59;19.50;98.00
546;DHT22;259;53.304;9.816;2023-08-06T01:58:25;19.50;98.00
546;DHT22;259;53.304;9.816;2023-08-06T02:00:50;19.50;98.00
546;DHT22;259;53.304;9.816;2023-08-06T02:03:16;19.50;98.00
546;DHT22;259;53.304;9.816;2023-08-06T02:05:42;19.50;98.00
546;DHT22;259;53.304;9.816;2023-08-06T02:08:08;19.50;98.00
546;DHT22;259;53.304;9.816;2023-08-06T02:10:34;19.50;98.00
546;DHT22;259;53.304;9.816;2023-08-06T02:13:00;19.40;98.00
546;DHT22;259;53.304;9.816;2023-08-06T02:15:25;19.40;98.00
546;DHT22;259;53.304;9.816;2023-08-06T02:17:51;19.40;97.90
546;DHT22;259;53.304;9.816;2023-08-06T02:20:17;19.40;98.00
546;DHT22;259;53.304;9.816;2023-08-06T02:22:42;19.40;97.90
546;DHT22;259;53.304;9.816;2023-08-06T02:25:08;19.40;97.90
546;DHT22;259;53.304;9.816;2023-08-06T02:27:34;19.40;98.00
546;DHT22;259;53.304;9.816;2023-08-06T02:29:59;19.40;98.00
546;DHT22;259;53.304;9.816;2023-08-06T02:32:25;19.40;98.00
546;DHT22;259;53.304;9.816;2023-08-06T02:34:51;19.40;98.00
546;DHT22;259;53.304;9.816;2023-08-06T02:37:17;19.40;98.00
546;DHT22;259;53.304;9.816;2023-08-06T02:39:42;19.40;98.00
546;DHT22;259;53.304;9.816;2023-08-06T02:42:09;19.40;98.00
546;DHT22;259;53.304;9.816;2023-08-06T02:44:35;19.40;98.00
546;DHT22;259;53.304;9.816;2023-08-06T02:47:01;19.40;98.00
546;DHT22;259;53.304;9.816;2023-08-06T02:49:27;19.30;97.90
546;DHT22;259;53.304;9.816;2023-08-06T02:51:53;19.30;98.00
546;DHT22;259;53.304;9.816;2023-08-06T02:54:19;19.30;98.00
546;DHT22;259;53.304;9.816;2023-08-06T02:56:45;19.30;98.00
546;DHT22;259;53.304;9.816;2023-08-06T02:59:12;19.30;98.00
546;DHT22;259;53.304;9.816;2023-08-06T03:01:38;19.30;98.00
546;DHT22;259;53.304;9.816;2023-08-06T03:04:04;19.30;98.00
546;DHT22;259;53.304;9.816;2023-08-06T03:06:30;19.30;98.00
546;DHT22;259;53.304;9.816;2023-08-06T03:08:55;19.30;98.00
546;DHT22;259;53.304;9.816;2023-08-06T03:11:21;19.30;98.00
546;DHT22;259;53.304;9.816;2023-08-06T03:13:47;19.30;98.00
546;DHT22;259;53.304;9.816;2023-08-06T03:16:13;19.30;98.00
546;DHT22;259;53.304;9.816;2023-08-06T03:18:39;19.30;98.10
546;DHT22;259;53.304;9.816;2023-08-06T03:21:05;19.30;98.00
546;DHT22;259;53.304;9.816;2023-08-06T03:23:31;19.30;98.10
546;DHT22;259;53.304;9.816;2023-08-06T03:26:00;19.20;98.00
546;DHT22;259;53.304;9.816;2023-08-06T03:28:29;19.20;98.00
546;DHT22;259;53.304;9.816;2023-08-06T03:31:04;19.20;98.00
546;DHT22;259;53.304;9.816;2023-08-06T03:33:30;19.20;98.10
546;DHT22;259;53.304;9.816;2023-08-06T03:35:56;19.20;98.10
546;DHT22;259;53.304;9.816;2023-08-06T03:38:22;19.20;98.00
546;DHT22;259;53.304;9.816;2023-08-06T03:40:48;19.20;98.00
546;DHT22;259;53.304;9.816;2023-08-06T03:43:14;19.20;98.00
546;DHT22;259;53.304;9.816;2023-08-06T03:45:41;19.20;98.00
546;DHT22;259;53.304;9.816;2023-08-06T03:48:07;19.20;98.00
546;DHT22;259;53.304;9.816;2023-08-06T03:50:33;19.20;98.00
546;DHT22;259;53.304;9.816;2023-08-06T03:52:59;19.20;98.00
546;DHT22;259;53.304;9.816;2023-08-06T03:55:24;19.20;98.00
546;DHT22;259;53.304;9.816;2023-08-06T03:57:50;19.20;98.00
546;DHT22;259;53.304;9.816;2023-08-06T04:00:16;19.20;98.00
546;DHT22;259;53.304;9.816;2023-08-06T04:02:42;19.20;98.00
546;DHT22;259;53.304;9.816;2023-08-06T04:05:08;19.10;98.00
546;DHT22;259;53.304;9.816;2023-08-06T04:07:34;19.10;98.20
546;DHT22;259;53.304;9.816;2023-08-06T04:10:01;19.10;98.00
546;DHT22;259;53.304;9.816;2023-08-06T04:12:29;19.10;98.00
546;DHT22;259;53.304;9.816;2023-08-06T04:14:57;19.10;98.00
546;DHT22;259;53.304;9.816;2023-08-06T04:17:23;19.10;98.00
546;DHT22;259;53.304;9.816;2023-08-06T04:19:53;19.10;98.00
546;DHT22;259;53.304;9.816;2023-08-06T04:22:20;19.10;98.00
546;DHT22;259;53.304;9.816;2023-08-06T04:24:47;19.00;97.90
546;DHT22;259;53.304;9.816;2023-08-06T04:27:14;19.00;98.00
546;DHT22;259;53.304;9.816;2023-08-06T04:29:40;19.00;98.00
546;DHT22;259;53.304;9.816;2023-08-06T04:32:07;19.00;98.00
546;DHT22;259;53.304;9.816;2023-08-06T04:34:35;19.00;98.00
546;DHT22;259;53.304;9.816;2023-08-06T04:37:02;19.10;98.10
546;DHT22;259;53.304;9.816;2023-08-06T04:39:28;19.10;98.00
546;DHT22;259;53.304;9.816;2023-08-06T04:41:56;19.10;98.10
546;DHT22;259;53.304;9.816;2023-08-06T04:44:22;19.00;98.00
546;DHT22;259;53.304;9.816;2023-08-06T04:46:48;19.10;98.00
546;DHT22;259;53.304;9.816;2023-08-06T04:49:14;19.00;97.90
546;DHT22;259;53.304;9.816;2023-08-06T04:51:40;19.10;98.00
546;DHT22;259;53.304;9.816;2023-08-06T04:54:06;19.00;98.00
546;DHT22;259;53.304;9.816;2023-08-06T04:56:31;19.00;98.00
546;DHT22;259;53.304;9.816;2023-08-06T04:58:58;19.00;98.10
546;DHT22;259;53.304;9.816;2023-08-06T05:01:24;19.00;98.00
546;DHT22;259;53.304;9.816;2023-08-06T05:03:50;19.00;98.00
546;DHT22;259;53.304;9.816;2023-08-06T05:06:16;19.00;98.00
546;DHT22;259;53.304;9.816;2023-08-06T05:08:41;19.00;98.10
546;DHT22;259;53.304;9.816;2023-08-06T05:11:07;19.00;98.10
546;DHT22;259;53.304;9.816;2023-08-06T05:13:33;19.00;98.10
546;DHT22;259;53.304;9.816;2023-08-06T05:15:58;18.90;98.10
546;DHT22;259;53.304;9.816;2023-08-06T05:18:24;19.00;98.10
546;DHT22;259;53.304;9.816;2023-08-06T05:20:50;19.00;98.10
546;DHT22;259;53.304;9.816;2023-08-06T05:23:15;18.90;98.10
546;DHT22;259;53.304;9.816;2023-08-06T05:25:42;18.90;98.00
546;DHT22;259;53.304;9.816;2023-08-06T05:28:08;18.90;98.10
546;DHT22;259;53.304;9.816;2023-08-06T05:30:33;18.90;98.10
546;DHT22;259;53.304;9.816;2023-08-06T05:32:59;18.90;98.10
546;DHT22;259;53.304;9.816;2023-08-06T05:35:25;18.90;98.10
546;DHT22;259;53.304;9.816;2023-08-06T05:37:50;18.90;98.10
546;DHT22;259;53.304;9.816;2023-08-06T05:40:16;18.90;98.10
546;DHT22;259;53.304;9.816;2023-08-06T05:42:42;18.90;98.10
546;DHT22;259;53.304;9.816;2023-08-06T05:45:08;18.90;98.10
546;DHT22;259;53.304;9.816;2023-08-06T05:47:35;18.90;98.10
546;DHT22;259;53.304;9.816;2023-08-06T05:50:00;18.90;98.10
546;DHT22;259;53.304;9.816;2023-08-06T05:52:26;18.90;98.10
546;DHT22;259;53.304;9.816;2023-08-06T05:54:52;18.90;98.20
546;DHT22;259;53.304;9.816;2023-08-06T05:57:17;18.90;98.10
546;DHT22;259;53.304;9.816;2023-08-06T05:59:43;18.90;98.20
546;DHT22;259;53.304;9.816;2023-08-06T06:02:09;18.80;98.10
546;DHT22;259;53.304;9.816;2023-08-06T06:04:35;18.80;98.10
546;DHT22;259;53.304;9.816;2023-08-06T06:07:00;18.80;98.10
546;DHT22;259;53.304;9.816;2023-08-06T06:09:26;18.80;98.10
546;DHT22;259;53.304;9.816;2023-08-06T06:11:52;18.80;98.10
546;DHT22;259;53.304;9.816;2023-08-06T06:14:18;18.90;98.20
546;DHT22;259;53.304;9.816;2023-08-06T06:16:45;18.80;98.00
546;DHT22;259;53.304;9.816;2023-08-06T06:19:11;18.80;98.10
546;DHT22;259;53.304;9.816;2023-08-06T06:21:38;18.80;98.00
546;DHT22;259;53.304;9.816;2023-08-06T06:24:04;18.90;98.10
546;DHT22;259;53.304;9.816;2023-08-06T06:26:31;18.90;98.10
546;DHT22;259;53.304;9.816;2023-08-06T06:28:57;18.80;98.00
546;DHT22;259;53.304;9.816;2023-08-06T06:31:23;18.80;98.10
546;DHT22;259;53.304;9.816;2023-08-06T06:33:49;18.90;98.10
546;DHT22;259;53.304;9.816;2023-08-06T06:36:15;18.80;98.10
546;DHT22;259;53.304;9.816;2023-08-06T06:38:41;18.90;98.10
546;DHT22;259;53.304;9.816;2023-08-06T06:41:06;18.80;98.10
546;DHT22;259;53.304;9.816;2023-08-06T06:43:32;18.80;98.20
546;DHT22;259;53.304;9.816;2023-08-06T06:45:58;18.90;98.30
546;DHT22;259;53.304;9.816;2023-08-06T06:48:33;18.80;98.20
546;DHT22;259;53.304;9.816;2023-08-06T06:50:59;18.80;98.20
546;DHT22;259;53.304;9.816;2023-08-06T06:53:25;18.80;98.20
546;DHT22;259;53.304;9.816;2023-08-06T06:56:02;18.80;98.20
546;DHT22;259;53.304;9.816;2023-08-06T06:58:28;18.80;98.20
546;DHT22;259;53.304;9.816;2023-08-06T07:00:54;18.80;98.20
546;DHT22;259;53.304;9.816;2023-08-06T07:03:22;18.80;98.20
546;DHT22;259;53.304;9.816;2023-08-06T07:05:48;18.80;98.20
546;DHT22;259;53.304;9.816;2023-08-06T07:08:14;18.80;98.20
546;DHT22;259;53.304;9.816;2023-08-06T07:10:41;18.80;98.20
546;DHT22;259;53.304;9.816;2023-08-06T07:13:07;18.80;98.20
546;DHT22;259;53.304;9.816;2023-08-06T07:15:32;18.80;98.20
546;DHT22;259;53.304;9.816;2023-08-06T07:17:58;18.80;98.30
546;DHT22;259;53.304;9.816;2023-08-06T07:20:24;18.80;98.30
546;DHT22;259;53.304;9.816;2023-08-06T07:22:50;18.80;98.20
546;DHT22;259;53.304;9.816;2023-08-06T07:25:16;18.80;98.20
546;DHT22;259;53.304;9.816;2023-08-06T07:27:42;18.80;98.30
546;DHT22;259;53.304;9.816;2023-08-06T07:30:08;18.80;98.20
546;DHT22;259;53.304;9.816;2023-08-06T07:32:33;18.80;98.20
546;DHT22;259;53.304;9.816;2023-08-06T07:34:59;18.80;98.30
546;DHT22;259;53.304;9.816;2023-08-06T07:37:26;18.80;98.60
546;DHT22;259;53.304;9.816;2023-08-06T07:39:55;18.80;98.30
546;DHT22;259;53.304;9.816;2023-08-06T07:42:22;18.80;98.30
546;DHT22;259;53.304;9.816;2023-08-06T07:44:55;18.80;98.30
546;DHT22;259;53.304;9.816;2023-08-06T07:47:22;18.80;98.30
546;DHT22;259;53.304;9.816;2023-08-06T07:49:48;18.80;98.30
546;DHT22;259;53.304;9.816;2023-08-06T07:52:13;18.80;98.30
546;DHT22;259;53.304;9.816;2023-08-06T07:54:39;18.80;98.30
546;DHT22;259;53.304;9.816;2023-08-06T07:57:05;18.80;98.30
546;DHT22;259;53.304;9.816;2023-08-06T07:59:31;18.80;98.30
546;DHT22;259;53.304;9.816;2023-08-06T08:01:56;18.80;98.30
546;DHT22;259;53.304;9.816;2023-08-06T08:04:23;18.80;98.30
546;DHT22;259;53.304;9.816;2023-08-06T08:06:49;18.80;98.30
546;DHT22;259;53.304;9.816;2023-08-06T08:09:14;18.80;98.30
546;DHT22;259;53.304;9.816;2023-08-06T08:11:41;18.80;98.30
546;DHT22;259;53.304;9.816;2023-08-06T08:14:07;18.80;98.30
546;DHT22;259;53.304;9.816;2023-08-06T08:16:33;18.80;98.40
546;DHT22;259;53.304;9.816;2023-08-06T08:18:58;18.80;98.30
546;DHT22;259;53.304;9.816;2023-08-06T08:21:24;18.80;98.30
546;DHT22;259;53.304;9.816;2023-08-06T08:23:51;18.80;98.30
546;DHT22;259;53.304;9.816;2023-08-06T08:26:17;18.80;98.30
546;DHT22;259;53.304;9.816;2023-08-06T08:28:42;18.80;98.30
546;DHT22;259;53.304;9.816;2023-08-06T08:31:09;18.80;98.30
546;DHT22;259;53.304;9.816;2023-08-06T08:33:39;18.80;98.30
546;DHT22;259;53.304;9.816;2023-08-06T08:36:05;18.80;98.30
546;DHT22;259;53.304;9.816;2023-08-06T08:38:31;18.80;98.40
546;DHT22;259;53.304;9.816;2023-08-06T08:40:57;18.80;98.30
546;DHT22;259;53.304;9.816;2023-08-06T08:43:23;18.80;98.30
546;DHT22;259;53.304;9.816;2023-08-06T08:45:54;18.80;98.30
546;DHT22;259;53.304;9.816;2023-08-06T08:48:26;18.80;98.30
546;DHT22;259;53.304;9.816;2023-08-06T08:50:55;18.80;98.40
546;DHT22;259;53.304;9.816;2023-08-06T08:53:21;18.80;98.40
546;DHT22;259;53.304;9.816;2023-08-06T08:55:48;18.80;98.40
546;DHT22;259;53.304;9.816;2023-08-06T08:58:15;18.80;98.40
546;DHT22;259;53.304;9.816;2023-08-06T09:00:42;18.80;98.40
546;DHT22;259;53.304;9.816;2023-08-06T09:03:08;18.80;98.30
546;DHT22;259;53.304;9.816;2023-08-06T09:05:34;18.90;98.40
546;DHT22;259;53.304;9.816;2023-08-06T09:08:04;18.90;98.40
546;DHT22;259;53.304;9.816;2023-08-06T09:10:29;18.80;98.30
546;DHT22;259;53.304;9.816;2023-08-06T09:12:56;18.80;98.30
546;DHT22;259;53.304;9.816;2023-08-06T09:15:27;18.90;98.40
546;DHT22;259;53.304;9.816;2023-08-06T09:17:53;18.90;98.70
546;DHT22;259;53.304;9.816;2023-08-06T09:20:20;18.90;98.40
546;DHT22;259;53.304;9.816;2023-08-06T09:22:45;18.90;98.40
546;DHT22;259;53.304;9.816;2023-08-06T09:25:21;19.00;98.40
546;DHT22;259;53.304;9.816;2023-08-06T09:27:50;19.00;98.40
546;DHT22;259;53.304;9.816;2023-08-06T09:30:32;19.00;98.30
546;DHT22;259;53.304;9.816;2023-08-06T09:33:00;19.00;98.30
546;DHT22;259;53.304;9.816;2023-08-06T09:35:31;19.00;98.30
546;DHT22;259;53.304;9.816;2023-08-06T09:38:08;19.00;98.30
546;DHT22;259;53.304;9.816;2023-08-06T09:40:36;19.00;98.30
546;DHT22;259;53.304;9.816;2023-08-06T09:43:02;19.00;98.20
546;DHT22;259;53.304;9.816;2023-08-06T09:45:31;19.00;98.20
546;DHT22;259;53.304;9.816;2023-08-06T09:47:59;19.00;98.10
546;DHT22;259;53.304;9.816;2023-08-06T09:50:30;19.00;98.10
546;DHT22;259;53.304;9.816;2023-08-06T09:53:00;19.00;98.10
546;DHT22;259;53.304;9.816;2023-08-06T09:55:26;19.10;98.20
546;DHT22;259;53.304;9.816;2023-08-06T09:57:53;19.10;98.20
546;DHT22;259;53.304;9.816;2023-08-06T10:00:19;19.00;98.20
546;DHT22;259;53.304;9.816;2023-08-06T10:02:46;19.00;98.20
546;DHT22;259;53.304;9.816;2023-08-06T10:05:12;19.10;98.20
546;DHT22;259;53.304;9.816;2023-08-06T10:07:38;19.10;98.20
546;DHT22;259;53.304;9.816;2023-08-06T10:10:06;19.10;98.10
546;DHT22;259;53.304;9.816;2023-08-06T10:12:35;19.10;98.10
546;DHT22;259;53.304;9.816;2023-08-06T10:15:09;19.10;98.10
546;DHT22;259;53.304;9.816;2023-08-06T10:17:37;19.10;98.20
546;DHT22;259;53.304;9.816;2023-08-06T10:20:05;19.10;98.10
546;DHT22;259;53.304;9.816;2023-08-06T10:22:33;19.10;98.10
546;DHT22;259;53.304;9.816;2023-08-06T10:24:59;19.10;98.10
546;DHT22;259;53.304;9.816;2023-08-06T10:27:54;19.10;98.10
546;DHT22;259;53.304;9.816;2023-08-06T10:30:33;19.20;98.20
546;DHT22;259;53.304;9.816;2023-08-06T10:33:03;19.20;98.10
546;DHT22;259;53.304;9.816;2023-08-06T10:35:43;19.20;98.10
546;DHT22;259;53.304;9.816;2023-08-06T10:38:22;19.20;98.10
546;DHT22;259;53.304;9.816;2023-08-06T10:43:29;19.20;98.10
546;DHT22;259;53.304;9.816;2023-08-06T10:45:56;19.20;98.10
546;DHT22;259;53.304;9.816;2023-08-06T10:51:02;19.20;98.10
546;DHT22;259;53.304;9.816;2023-08-06T10:53:29;19.30;98.10
546;DHT22;259;53.304;9.816;2023-08-06T10:55:54;19.30;98.20
546;DHT22;259;53.304;9.816;2023-08-06T10:58:20;19.30;98.20
546;DHT22;259;53.304;9.816;2023-08-06T11:00:46;19.30;98.20
546;DHT22;259;53.304;9.816;2023-08-06T11:03:12;19.30;98.20
546;DHT22;259;53.304;9.816;2023-08-06T11:05:38;19.30;98.20
546;DHT22;259;53.304;9.816;2023-08-06T11:08:04;19.30;98.20
546;DHT22;259;53.304;9.816;2023-08-06T11:10:32;19.30;98.20
546;DHT22;259;53.304;9.816;2023-08-06T11:13:01;19.30;98.20
546;DHT22;259;53.304;9.816;2023-08-06T11:15:28;19.30;98.20
546;DHT22;259;53.304;9.816;2023-08-06T11:17:54;19.30;98.20
546;DHT22;259;53.304;9.816;2023-08-06T11:20:20;19.30;98.20
546;DHT22;259;53.304;9.816;2023-08-06T11:22:47;19.30;98.20
546;DHT22;259;53.304;9.816;2023-08-06T11:25:13;19.30;98.30
546;DHT22;259;53.304;9.816;2023-08-06T11:27:38;19.30;98.20
546;DHT22;259;53.304;9.816;2023-08-06T11:30:04;19.30;98.30
546;DHT22;259;53.304;9.816;2023-08-06T11:32:30;19.30;98.30
546;DHT22;259;53.304;9.816;2023-08-06T11:34:56;19.30;98.30
546;DHT22;259;53.304;9.816;2023-08-06T11:37:22;19.30;98.30
546;DHT22;259;53.304;9.816;2023-08-06T11:39:50;19.30;98.30
546;DHT22;259;53.304;9.816;2023-08-06T11:42:15;19.30;98.30
546;DHT22;259;53.304;9.816;2023-08-06T11:44:41;19.40;98.30
546;DHT22;259;53.304;9.816;2023-08-06T11:47:13;19.40;98.30
546;DHT22;259;53.304;9.816;2023-08-06T11:52:21;19.40;98.40
546;DHT22;259;53.304;9.816;2023-08-06T11:55:08;19.40;98.30
546;DHT22;259;53.304;9.816;2023-08-06T11:57:38;19.40;98.30
546;DHT22;259;53.304;9.816;2023-08-06T12:00:10;19.40;98.30
546;DHT22;259;53.304;9.816;2023-08-06T12:02:39;19.40;98.30
546;DHT22;259;53.304;9.816;2023-08-06T12:05:10;19.40;98.40
546;DHT22;259;53.304;9.816;2023-08-06T12:07:38;19.40;98.40
546;DHT22;259;53.304;9.816;2023-08-06T12:10:05;19.40;98.40
546;DHT22;259;53.304;9.816;2023-08-06T12:12:31;19.40;98.40
546;DHT22;259;53.304;9.816;2023-08-06T12:14:57;19.40;98.40
546;DHT22;259;53.304;9.816;2023-08-06T12:17:24;19.40;98.40
546;DHT22;259;53.304;9.816;2023-08-06T12:19:50;19.40;98.40
546;DHT22;259;53.304;9.816;2023-08-06T12:22:16;19.40;98.40
546;DHT22;259;53.304;9.816;2023-08-06T12:24:43;19.40;98.40
546;DHT22;259;53.304;9.816;2023-08-06T12:27:10;19.50;98.50
546;DHT22;259;53.304;9.816;2023-08-06T12:29:37;19.50;98.50
546;DHT22;259;53.304;9.816;2023-08-06T12:32:05;19.50;98.50
546;DHT22;259;53.304;9.816;2023-08-06T12:34:31;19.50;98.50
546;DHT22;259;53.304;9.816;2023-08-06T12:36:57;19.50;98.50
546;DHT22;259;53.304;9.816;2023-08-06T12:39:22;19.50;98.50
546;DHT22;259;53.304;9.816;2023-08-06T12:41:49;19.50;98.50
546;DHT22;259;53.304;9.816;2023-08-06T12:44:15;19.50;98.50
546;DHT22;259;53.304;9.816;2023-08-06T12:46:40;19.50;98.50
546;DHT22;259;53.304;9.816;2023-08-06T12:49:06;19.50;98.50
546;DHT22;259;53.304;9.816;2023-08-06T12:51:32;19.50;98.50
546;DHT22;259;53.304;9.816;2023-08-06T12:53:59;19.50;98.50
546;DHT22;259;53.304;9.816;2023-08-06T12:56:25;19.50;98.50
546;DHT22;259;53.304;9.816;2023-08-06T12:58:50;19.60;98.50
546;DHT22;259;53.304;9.816;2023-08-06T13:01:16;19.60;98.50
546;DHT22;259;53.304;9.816;2023-08-06T13:03:42;19.60;98.50
546;DHT22;259;53.304;9.816;2023-08-06T13:06:08;19.60;98.50
546;DHT22;259;53.304;9.816;2023-08-06T13:08:35;19.60;98.50
546;DHT22;259;53.304;9.816;2023-08-06T13:11:01;19.60;98.50
546;DHT22;259;53.304;9.816;2023-08-06T13:13:27;19.60;98.50
546;DHT22;259;53.304;9.816;2023-08-06T13:15:53;19.60;98.60
546;DHT22;259;53.304;9.816;2023-08-06T13:18:18;19.60;98.60
546;DHT22;259;53.304;9.816;2023-08-06T13:20:44;19.70;98.60
546;DHT22;259;53.304;9.816;2023-08-06T13:23:12;19.70;98.60
546;DHT22;259;53.304;9.816;2023-08-06T13:25:40;19.70;98.60
546;DHT22;259;53.304;9.816;2023-08-06T13:28:06;19.80;98.60
546;DHT22;259;53.304;9.816;2023-08-06T13:30:32;19.80;98.50
546;DHT22;259;53.304;9.816;2023-08-06T13:32:58;19.80;98.50
546;DHT22;259;53.304;9.816;2023-08-06T13:35:23;19.90;98.50
546;DHT22;259;53.304;9.816;2023-08-06T13:37:49;19.90;98.50
546;DHT22;259;53.304;9.816;2023-08-06T13:40:15;20.00;98.60
546;DHT22;259;53.304;9.816;2023-08-06T13:42:41;20.00;98.50
546;DHT22;259;53.304;9.816;2023-08-06T13:45:07;20.10;98.50
546;DHT22;259;53.304;9.816;2023-08-06T13:47:33;20.10;98.40
546;DHT22;259;53.304;9.816;2023-08-06T13:49:59;20.20;98.40
546;DHT22;259;53.304;9.816;2023-08-06T13:52:27;20.20;98.40
546;DHT22;259;53.304;9.816;2023-08-06T13:54:53;20.30;98.30
546;DHT22;259;53.304;9.816;2023-08-06T13:57:18;20.30;98.30
546;DHT22;259;53.304;9.816;2023-08-06T13:59:44;20.40;98.30
546;DHT22;259;53.304;9.816;2023-08-06T14:02:10;20.40;98.30
546;DHT22;259;53.304;9.816;2023-08-06T14:04:36;20.50;98.20
546;DHT22;259;53.304;9.816;2023-08-06T14:07:03;20.50;98.10
546;DHT22;259;53.304;9.816;2023-08-06T14:09:29;20.60;98.20
546;DHT22;259;53.304;9.816;2023-08-06T14:11:55;20.60;98.20
546;DHT22;259;53.304;9.816;2023-08-06T14:14:21;20.70;98.10
546;DHT22;259;53.304;9.816;2023-08-06T14:16:54;20.70;98.00
546;DHT22;259;53.304;9.816;2023-08-06T14:19:20;20.70;97.90
546;DHT22;259;53.304;9.816;2023-08-06T14:21:46;20.70;97.90
546;DHT22;259;53.304;9.816;2023-08-06T14:24:12;20.70;97.90
546;DHT22;259;53.304;9.816;2023-08-06T14:26:38;20.70;97.90
546;DHT22;259;53.304;9.816;2023-08-06T14:29:04;20.70;98.00
546;DHT22;259;53.304;9.816;2023-08-06T14:31:30;20.70;98.00
546;DHT22;259;53.304;9.816;2023-08-06T14:33:55;20.70;98.00
546;DHT22;259;53.304;9.816;2023-08-06T14:36:21;20.70;98.00
546;DHT22;259;53.304;9.816;2023-08-06T14:38:47;20.70;98.30
546;DHT22;259;53.304;9.816;2023-08-06T14:41:13;20.70;98.40
546;DHT22;259;53.304;9.816;2023-08-06T14:43:39;20.70;98.40
546;DHT22;259;53.304;9.816;2023-08-06T14:46:04;20.70;98.50
546;DHT22;259;53.304;9.816;2023-08-06T14:48:30;20.60;98.50
546;DHT22;259;53.304;9.816;2023-08-06T14:50:56;20.70;98.50
546;DHT22;259;53.304;9.816;2023-08-06T14:53:22;20.70;98.50
546;DHT22;259;53.304;9.816;2023-08-06T14:55:48;20.60;98.50
546;DHT22;259;53.304;9.816;2023-08-06T14:58:14;20.60;98.50
546;DHT22;259;53.304;9.816;2023-08-06T15:00:40;20.60;98.50
546;DHT22;259;53.304;9.816;2023-08-06T15:03:05;20.60;98.50
546;DHT22;259;53.304;9.816;2023-08-06T15:05:31;20.60;98.50
546;DHT22;259;53.304;9.816;2023-08-06T15:07:57;20.60;98.60
546;DHT22;259;53.304;9.816;2023-08-06T15:10:22;20.60;98.60
546;DHT22;259;53.304;9.816;2023-08-06T15:12:48;20.60;98.60
546;DHT22;259;53.304;9.816;2023-08-06T15:15:14;20.60;98.60
546;DHT22;259;53.304;9.816;2023-08-06T15:17:40;20.50;98.60
546;DHT22;259;53.304;9.816;2023-08-06T15:20:06;20.50;98.60
546;DHT22;259;53.304;9.816;2023-08-06T15:22:32;20.50;98.70
546;DHT22;259;53.304;9.816;2023-08-06T15:25:02;20.50;98.70
546;DHT22;259;53.304;9.816;2023-08-06T15:27:29;20.50;98.70
546;DHT22;259;53.304;9.816;2023-08-06T15:29:55;20.50;98.60
546;DHT22;259;53.304;9.816;2023-08-06T15:32:21;20.50;98.70
546;DHT22;259;53.304;9.816;2023-08-06T15:34:48;20.50;98.70
546;DHT22;259;53.304;9.816;2023-08-06T15:37:14;20.50;98.60
546;DHT22;259;53.304;9.816;2023-08-06T15:39:40;20.50;98.70
546;DHT22;259;53.304;9.816;2023-08-06T15:42:06;20.50;98.70
546;DHT22;259;53.304;9.816;2023-08-06T15:44:31;20.50;98.80
546;DHT22;259;53.304;9.816;2023-08-06T15:46:57;20.40;98.80
546;DHT22;259;53.304;9.816;2023-08-06T15:49:23;20.40;98.80
546;DHT22;259;53.304;9.816;2023-08-06T15:51:48;20.50;98.90
546;DHT22;259;53.304;9.816;2023-08-06T15:54:15;20.40;98.80
546;DHT22;259;53.304;9.816;2023-08-06T15:56:40;20.40;99.20
546;DHT22;259;53.304;9.816;2023-08-06T15:59:25;20.40;98.80
546;DHT22;259;53.304;9.816;2023-08-06T16:01:55;20.40;98.90
546;DHT22;259;53.304;9.816;2023-08-06T16:04:24;20.40;98.90
546;DHT22;259;53.304;9.816;2023-08-06T16:06:51;20.40;98.80
546;DHT22;259;53.304;9.816;2023-08-06T16:09:17;20.40;98.80
546;DHT22;259;53.304;9.816;2023-08-06T16:11:43;20.40;98.80
546;DHT22;259;53.304;9.816;2023-08-06T16:14:10;20.40;98.80
546;DHT22;259;53.304;9.816;2023-08-06T16:16:35;20.40;98.80
546;DHT22;259;53.304;9.816;2023-08-06T16:19:02;20.40;98.80
546;DHT22;259;53.304;9.816;2023-08-06T16:21:28;20.40;98.80
546;DHT22;259;53.304;9.816;2023-08-06T16:23:54;20.40;98.90
546;DHT22;259;53.304;9.816;2023-08-06T16:26:21;20.40;98.90
546;DHT22;259;53.304;9.816;2023-08-06T16:28:46;20.40;98.90
546;DHT22;259;53.304;9.816;2023-08-06T16:31:12;20.40;98.90
546;DHT22;259;53.304;9.816;2023-08-06T16:33:38;20.40;98.90
546;DHT22;259;53.304;9.816;2023-08-06T16:36:04;20.40;98.90
546;DHT22;259;53.304;9.816;2023-08-06T16:38:30;20.40;99.00
546;DHT22;259;53.304;9.816;2023-08-06T16:40:57;20.40;99.50
546;DHT22;259;53.304;9.816;2023-08-06T16:43:23;20.40;99.70
546;DHT22;259;53.304;9.816;2023-08-06T16:45:51;20.40;99.70